首页
METAR-TAF:

METAR-TAF

机场 :

贝伦, 帕拉, 巴西

纬度: 01-23S, 经度: 048-29W, 海拔: 16米

当前天气观测

该预报发布于20分钟前的21:00 UTC
风速3节,风向西
温度 28°C
湿度 79%
气压 1011 hPa
能见度10公里或以上
散云层高于4000英尺

METAR: SBBE 252100Z 26003KT 9999 SCT040 28/24 Q1011

时间: 18:20 (21:20 UTC)

预报

该预报发布于6小时和10分钟前的15:10 UTC
预报有效从25日的 18点(UTC)到 26日的 18点(UTC)
风速10节,风向
能见度10公里或以上
散云层高于2500英尺
几率 30%
从 25日的 20点(UTC)到 25日的 22点(UTC)
散云层高于2500英尺
少量云层高于3000英尺, 积雨云.
雷暴
成为
从 25日的 23点(UTC)到 26日的 01点(UTC)
风速10节,风向东北
成为
从 26日的 08点(UTC)到 26日的 10点(UTC)
风速10节,风向
成为
从 26日的 13点(UTC)到 26日的 15点(UTC)
风速10节,风向东转东南

TAF: SBBE 251510Z 2518/2618 09010KT 9999 SCT025 TX33/2518Z TN25/2606Z PROB30 2520/2522 TS SCT025 FEW030CB BECMG 2523/2601 05010KT BECMG 2608/2610 09010KT BECMG 2613/2615 12010KT RMK PHD

超过4000个机场的气象观测和天气预报(METAR&TAF报告)。

可查询的气象台以黄色和红色小点在地图上表示。

将鼠标移到小点上方,可查看气象台名称。

然后点击查看天气观测和预报。

如需切换地图:点击带黑十字的绿色按钮放大地图;点击带横线的绿色按钮缩小地图;或者点击绿色箭头查看邻近地区的地图。


METAR-TAF: